sensor_id;sensor_type;location;lat;lon;timestamp;P1;durP1;ratioP1;P2;durP2;ratioP2
40981;SDS011;26708;50.304;19.028;2022-09-27T00:02:15;66.95;;;24.80;;
40981;SDS011;26708;50.304;19.028;2022-09-27T00:05:16;53.90;;;22.65;;
40981;SDS011;26708;50.304;19.028;2022-09-27T00:08:17;53.28;;;23.55;;
40981;SDS011;26708;50.304;19.028;2022-09-27T00:11:24;59.58;;;23.45;;
40981;SDS011;26708;50.304;19.028;2022-09-27T00:14:26;75.30;;;27.55;;
40981;SDS011;26708;50.304;19.028;2022-09-27T00:17:27;57.70;;;25.63;;
40981;SDS011;26708;50.304;19.028;2022-09-27T00:20:28;73.25;;;25.33;;
40981;SDS011;26708;50.304;19.028;2022-09-27T00:23:29;92.60;;;27.52;;
40981;SDS011;26708;50.304;19.028;2022-09-27T00:26:30;98.90;;;25.48;;
40981;SDS011;26708;50.304;19.028;2022-09-27T00:29:31;60.20;;;25.60;;
40981;SDS011;26708;50.304;19.028;2022-09-27T00:32:31;100.78;;;24.35;;
40981;SDS011;26708;50.304;19.028;2022-09-27T00:35:32;86.28;;;23.42;;
40981;SDS011;26708;50.304;19.028;2022-09-27T00:38:33;86.70;;;23.23;;
40981;SDS011;26708;50.304;19.028;2022-09-27T00:41:34;75.63;;;22.25;;
40981;SDS011;26708;50.304;19.028;2022-09-27T00:47:40;63.65;;;22.63;;
40981;SDS011;26708;50.304;19.028;2022-09-27T00:50:57;51.65;;;20.55;;
40981;SDS011;26708;50.304;19.028;2022-09-27T00:54:01;60.00;;;22.88;;
40981;SDS011;26708;50.304;19.028;2022-09-27T00:57:03;61.60;;;20.77;;
40981;SDS011;26708;50.304;19.028;2022-09-27T01:00:06;76.60;;;20.48;;
40981;SDS011;26708;50.304;19.028;2022-09-27T01:03:09;70.63;;;21.48;;
40981;SDS011;26708;50.304;19.028;2022-09-27T01:06:14;139.98;;;22.23;;
40981;SDS011;26708;50.304;19.028;2022-09-27T01:09:17;78.07;;;20.25;;
40981;SDS011;26708;50.304;19.028;2022-09-27T01:12:23;115.22;;;20.38;;
40981;SDS011;26708;50.304;19.028;2022-09-27T01:22:39;144.20;;;20.10;;
40981;SDS011;26708;50.304;19.028;2022-09-27T01:28:56;141.77;;;18.38;;
40981;SDS011;26708;50.304;19.028;2022-09-27T01:32:08;115.70;;;17.75;;
40981;SDS011;26708;50.304;19.028;2022-09-27T01:35:35;122.95;;;17.35;;
40981;SDS011;26708;50.304;19.028;2022-09-27T01:42:39;132.55;;;17.35;;
40981;SDS011;26708;50.304;19.028;2022-09-27T01:46:02;109.90;;;17.13;;
40981;SDS011;26708;50.304;19.028;2022-09-27T01:49:33;90.90;;;16.45;;
40981;SDS011;26708;50.304;19.028;2022-09-27T01:52:41;102.57;;;16.52;;
40981;SDS011;26708;50.304;19.028;2022-09-27T01:55:49;88.28;;;15.88;;
40981;SDS011;26708;50.304;19.028;2022-09-27T02:02:31;98.32;;;16.90;;
40981;SDS011;26708;50.304;19.028;2022-09-27T02:05:56;123.18;;;16.65;;
40981;SDS011;26708;50.304;19.028;2022-09-27T02:09:25;118.32;;;16.10;;
40981;SDS011;26708;50.304;19.028;2022-09-27T02:12:52;123.15;;;15.25;;
40981;SDS011;26708;50.304;19.028;2022-09-27T02:19:33;109.53;;;15.52;;
40981;SDS011;26708;50.304;19.028;2022-09-27T02:22:49;179.00;;;18.10;;
40981;SDS011;26708;50.304;19.028;2022-09-27T02:25:56;140.27;;;17.30;;
40981;SDS011;26708;50.304;19.028;2022-09-27T02:32:08;146.50;;;16.90;;
40981;SDS011;26708;50.304;19.028;2022-09-27T02:35:10;72.50;;;15.85;;
40981;SDS011;26708;50.304;19.028;2022-09-27T02:38:16;118.03;;;15.70;;
40981;SDS011;26708;50.304;19.028;2022-09-27T02:41:19;66.82;;;14.75;;
40981;SDS011;26708;50.304;19.028;2022-09-27T02:44:20;138.38;;;16.42;;
40981;SDS011;26708;50.304;19.028;2022-09-27T02:47:30;95.38;;;15.88;;
40981;SDS011;26708;50.304;19.028;2022-09-27T02:50:56;193.18;;;17.83;;
40981;SDS011;26708;50.304;19.028;2022-09-27T02:58:25;91.40;;;15.32;;
40981;SDS011;26708;50.304;19.028;2022-09-27T03:05:41;49.42;;;15.07;;
40981;SDS011;26708;50.304;19.028;2022-09-27T03:08:45;52.67;;;14.07;;
40981;SDS011;26708;50.304;19.028;2022-09-27T03:11:47;78.25;;;13.95;;
40981;SDS011;26708;50.304;19.028;2022-09-27T03:14:48;71.80;;;13.43;;
40981;SDS011;26708;50.304;19.028;2022-09-27T03:18:21;57.17;;;12.60;;
40981;SDS011;26708;50.304;19.028;2022-09-27T03:21:40;102.22;;;12.77;;
40981;SDS011;26708;50.304;19.028;2022-09-27T03:24:42;87.50;;;14.23;;
40981;SDS011;26708;50.304;19.028;2022-09-27T03:27:43;66.72;;;13.73;;
40981;SDS011;26708;50.304;19.028;2022-09-27T03:30:44;62.05;;;13.88;;
40981;SDS011;26708;50.304;19.028;2022-09-27T03:33:49;65.50;;;13.20;;
40981;SDS011;26708;50.304;19.028;2022-09-27T03:36:51;71.28;;;13.38;;
40981;SDS011;26708;50.304;19.028;2022-09-27T03:39:52;70.40;;;13.18;;
40981;SDS011;26708;50.304;19.028;2022-09-27T03:42:53;62.28;;;13.70;;
40981;SDS011;26708;50.304;19.028;2022-09-27T03:45:54;61.70;;;13.32;;
40981;SDS011;26708;50.304;19.028;2022-09-27T03:48:55;47.50;;;13.43;;
40981;SDS011;26708;50.304;19.028;2022-09-27T03:51:56;44.53;;;13.60;;
40981;SDS011;26708;50.304;19.028;2022-09-27T03:54:56;65.47;;;12.50;;
40981;SDS011;26708;50.304;19.028;2022-09-27T03:57:57;66.03;;;12.95;;
40981;SDS011;26708;50.304;19.028;2022-09-27T04:00:58;52.17;;;13.50;;
40981;SDS011;26708;50.304;19.028;2022-09-27T04:04:00;82.90;;;13.05;;
40981;SDS011;26708;50.304;19.028;2022-09-27T04:10:06;107.35;;;14.50;;
40981;SDS011;26708;50.304;19.028;2022-09-27T04:13:09;72.65;;;12.55;;
40981;SDS011;26708;50.304;19.028;2022-09-27T04:16:16;56.35;;;13.02;;
40981;SDS011;26708;50.304;19.028;2022-09-27T04:19:35;55.58;;;13.23;;
40981;SDS011;26708;50.304;19.028;2022-09-27T04:22:47;73.93;;;13.23;;
40981;SDS011;26708;50.304;19.028;2022-09-27T04:25:47;58.42;;;12.60;;
40981;SDS011;26708;50.304;19.028;2022-09-27T04:28:54;51.65;;;12.93;;
40981;SDS011;26708;50.304;19.028;2022-09-27T04:31:56;38.50;;;12.45;;
40981;SDS011;26708;50.304;19.028;2022-09-27T04:34:56;40.85;;;13.80;;
40981;SDS011;26708;50.304;19.028;2022-09-27T04:38:15;43.90;;;12.45;;
40981;SDS011;26708;50.304;19.028;2022-09-27T04:41:19;50.38;;;13.15;;
40981;SDS011;26708;50.304;19.028;2022-09-27T04:44:21;51.33;;;14.80;;
40981;SDS011;26708;50.304;19.028;2022-09-27T04:47:24;47.60;;;13.88;;
40981;SDS011;26708;50.304;19.028;2022-09-27T04:50:24;43.80;;;13.48;;
40981;SDS011;26708;50.304;19.028;2022-09-27T04:53:35;75.82;;;12.63;;
40981;SDS011;26708;50.304;19.028;2022-09-27T04:56:36;56.38;;;11.48;;
40981;SDS011;26708;50.304;19.028;2022-09-27T04:59:39;37.22;;;11.52;;
40981;SDS011;26708;50.304;19.028;2022-09-27T05:02:44;51.13;;;14.10;;
40981;SDS011;26708;50.304;19.028;2022-09-27T05:06:04;76.72;;;19.70;;
40981;SDS011;26708;50.304;19.028;2022-09-27T05:09:05;45.88;;;19.85;;
40981;SDS011;26708;50.304;19.028;2022-09-27T05:12:14;46.55;;;21.08;;
40981;SDS011;26708;50.304;19.028;2022-09-27T05:15:31;52.38;;;29.98;;
40981;SDS011;26708;50.304;19.028;2022-09-27T05:19:08;51.97;;;20.88;;
40981;SDS011;26708;50.304;19.028;2022-09-27T05:22:34;94.60;;;41.38;;
40981;SDS011;26708;50.304;19.028;2022-09-27T05:25:35;43.28;;;20.17;;
40981;SDS011;26708;50.304;19.028;2022-09-27T05:28:36;29.33;;;13.10;;
40981;SDS011;26708;50.304;19.028;2022-09-27T05:31:36;35.10;;;11.45;;
40981;SDS011;26708;50.304;19.028;2022-09-27T05:34:37;22.75;;;10.43;;
40981;SDS011;26708;50.304;19.028;2022-09-27T05:37:38;44.15;;;13.32;;
40981;SDS011;26708;50.304;19.028;2022-09-27T05:40:40;36.72;;;15.38;;
40981;SDS011;26708;50.304;19.028;2022-09-27T05:43:44;36.42;;;17.15;;
40981;SDS011;26708;50.304;19.028;2022-09-27T05:46:47;34.05;;;15.52;;
40981;SDS011;26708;50.304;19.028;2022-09-27T05:49:48;35.35;;;14.80;;
40981;SDS011;26708;50.304;19.028;2022-09-27T05:52:49;23.95;;;12.10;;
40981;SDS011;26708;50.304;19.028;2022-09-27T05:55:52;25.27;;;12.15;;
40981;SDS011;26708;50.304;19.028;2022-09-27T05:58:58;23.45;;;12.73;;
40981;SDS011;26708;50.304;19.028;2022-09-27T06:02:04;28.30;;;14.70;;
40981;SDS011;26708;50.304;19.028;2022-09-27T06:05:37;31.48;;;13.95;;
40981;SDS011;26708;50.304;19.028;2022-09-27T06:08:57;29.20;;;14.52;;
40981;SDS011;26708;50.304;19.028;2022-09-27T06:12:00;30.05;;;15.48;;
40981;SDS011;26708;50.304;19.028;2022-09-27T06:15:01;32.55;;;17.73;;
40981;SDS011;26708;50.304;19.028;2022-09-27T06:18:14;35.47;;;19.25;;
40981;SDS011;26708;50.304;19.028;2022-09-27T06:21:18;32.60;;;18.48;;
40981;SDS011;26708;50.304;19.028;2022-09-27T06:24:27;30.58;;;17.40;;
40981;SDS011;26708;50.304;19.028;2022-09-27T06:27:31;28.38;;;16.05;;
40981;SDS011;26708;50.304;19.028;2022-09-27T06:30:41;27.92;;;15.70;;
40981;SDS011;26708;50.304;19.028;2022-09-27T06:33:56;25.88;;;13.70;;
40981;SDS011;26708;50.304;19.028;2022-09-27T06:36:57;23.13;;;13.60;;
40981;SDS011;26708;50.304;19.028;2022-09-27T06:39:59;25.38;;;14.35;;
40981;SDS011;26708;50.304;19.028;2022-09-27T06:43:18;29.05;;;13.68;;
40981;SDS011;26708;50.304;19.028;2022-09-27T06:46:38;21.58;;;12.75;;
40981;SDS011;26708;50.304;19.028;2022-09-27T06:49:45;25.08;;;11.68;;
40981;SDS011;26708;50.304;19.028;2022-09-27T06:52:48;28.95;;;14.05;;
40981;SDS011;26708;50.304;19.028;2022-09-27T06:55:50;24.80;;;14.05;;
40981;SDS011;26708;50.304;19.028;2022-09-27T06:58:51;25.60;;;13.75;;
40981;SDS011;26708;50.304;19.028;2022-09-27T07:02:16;27.40;;;13.27;;
40981;SDS011;26708;50.304;19.028;2022-09-27T07:05:37;22.73;;;13.43;;
40981;SDS011;26708;50.304;19.028;2022-09-27T07:09:00;20.17;;;12.93;;
40981;SDS011;26708;50.304;19.028;2022-09-27T07:12:02;18.98;;;12.07;;
40981;SDS011;26708;50.304;19.028;2022-09-27T07:15:05;20.08;;;12.40;;
40981;SDS011;26708;50.304;19.028;2022-09-27T07:18:06;22.80;;;11.63;;
40981;SDS011;26708;50.304;19.028;2022-09-27T07:21:08;20.13;;;11.43;;
40981;SDS011;26708;50.304;19.028;2022-09-27T07:24:10;24.40;;;11.52;;
40981;SDS011;26708;50.304;19.028;2022-09-27T07:27:13;22.65;;;13.10;;
40981;SDS011;26708;50.304;19.028;2022-09-27T07:30:15;31.77;;;16.35;;
40981;SDS011;26708;50.304;19.028;2022-09-27T07:33:16;27.83;;;14.20;;
40981;SDS011;26708;50.304;19.028;2022-09-27T07:36:17;24.00;;;13.75;;
40981;SDS011;26708;50.304;19.028;2022-09-27T07:39:20;19.80;;;12.02;;
40981;SDS011;26708;50.304;19.028;2022-09-27T07:42:21;18.13;;;11.23;;
40981;SDS011;26708;50.304;19.028;2022-09-27T07:45:25;33.95;;;16.20;;
40981;SDS011;26708;50.304;19.028;2022-09-27T07:48:55;26.85;;;13.73;;
40981;SDS011;26708;50.304;19.028;2022-09-27T07:52:15;19.13;;;12.68;;
40981;SDS011;26708;50.304;19.028;2022-09-27T07:55:35;18.80;;;11.23;;
40981;SDS011;26708;50.304;19.028;2022-09-27T07:58:42;21.15;;;11.07;;
40981;SDS011;26708;50.304;19.028;2022-09-27T08:01:43;17.83;;;10.93;;
40981;SDS011;26708;50.304;19.028;2022-09-27T08:04:46;16.13;;;10.07;;
40981;SDS011;26708;50.304;19.028;2022-09-27T08:07:52;23.48;;;12.05;;
40981;SDS011;26708;50.304;19.028;2022-09-27T08:10:54;26.27;;;13.85;;
40981;SDS011;26708;50.304;19.028;2022-09-27T08:13:55;21.30;;;11.60;;
40981;SDS011;26708;50.304;19.028;2022-09-27T08:17:01;19.30;;;11.60;;
40981;SDS011;26708;50.304;19.028;2022-09-27T08:20:02;21.05;;;11.40;;
40981;SDS011;26708;50.304;19.028;2022-09-27T08:23:20;14.07;;;8.90;;
40981;SDS011;26708;50.304;19.028;2022-09-27T08:26:29;17.25;;;9.20;;
40981;SDS011;26708;50.304;19.028;2022-09-27T08:29:43;16.40;;;10.43;;
40981;SDS011;26708;50.304;19.028;2022-09-27T08:32:45;19.13;;;10.02;;
40981;SDS011;26708;50.304;19.028;2022-09-27T08:35:46;14.18;;;8.75;;
40981;SDS011;26708;50.304;19.028;2022-09-27T08:38:50;15.73;;;8.93;;
40981;SDS011;26708;50.304;19.028;2022-09-27T08:45:24;12.68;;;7.63;;
40981;SDS011;26708;50.304;19.028;2022-09-27T08:48:32;16.45;;;10.32;;
40981;SDS011;26708;50.304;19.028;2022-09-27T08:51:36;23.73;;;12.07;;
40981;SDS011;26708;50.304;19.028;2022-09-27T08:54:40;13.65;;;9.23;;
40981;SDS011;26708;50.304;19.028;2022-09-27T08:57:44;13.77;;;8.20;;
40981;SDS011;26708;50.304;19.028;2022-09-27T09:00:52;11.13;;;7.72;;
40981;SDS011;26708;50.304;19.028;2022-09-27T09:03:59;13.45;;;7.75;;
40981;SDS011;26708;50.304;19.028;2022-09-27T09:10:29;15.60;;;8.10;;
40981;SDS011;26708;50.304;19.028;2022-09-27T09:20:54;12.68;;;6.00;;
40981;SDS011;26708;50.304;19.028;2022-09-27T09:24:13;9.77;;;6.68;;
40981;SDS011;26708;50.304;19.028;2022-09-27T09:34:30;5.38;;;3.78;;
40981;SDS011;26708;50.304;19.028;2022-09-27T09:37:38;5.80;;;3.67;;
40981;SDS011;26708;50.304;19.028;2022-09-27T09:41:02;10.57;;;4.72;;
40981;SDS011;26708;50.304;19.028;2022-09-27T09:50:39;5.53;;;3.40;;
40981;SDS011;26708;50.304;19.028;2022-09-27T09:54:07;11.45;;;4.20;;
40981;SDS011;26708;50.304;19.028;2022-09-27T10:00:17;8.75;;;4.70;;
40981;SDS011;26708;50.304;19.028;2022-09-27T10:03:24;9.63;;;4.00;;
40981;SDS011;26708;50.304;19.028;2022-09-27T10:06:26;12.45;;;5.30;;
40981;SDS011;26708;50.304;19.028;2022-09-27T10:09:29;6.65;;;3.50;;
40981;SDS011;26708;50.304;19.028;2022-09-27T10:12:50;11.88;;;5.50;;
40981;SDS011;26708;50.304;19.028;2022-09-27T10:19:18;10.02;;;4.05;;
40981;SDS011;26708;50.304;19.028;2022-09-27T10:22:33;10.25;;;4.07;;
40981;SDS011;26708;50.304;19.028;2022-09-27T10:29:31;8.95;;;4.50;;
40981;SDS011;26708;50.304;19.028;2022-09-27T10:32:33;7.65;;;5.10;;
40981;SDS011;26708;50.304;19.028;2022-09-27T10:36:21;9.13;;;4.88;;
40981;SDS011;26708;50.304;19.028;2022-09-27T10:39:25;10.63;;;4.70;;
40981;SDS011;26708;50.304;19.028;2022-09-27T10:42:31;14.93;;;5.57;;
40981;SDS011;26708;50.304;19.028;2022-09-27T10:45:41;5.63;;;3.30;;
40981;SDS011;26708;50.304;19.028;2022-09-27T10:52:24;7.45;;;3.70;;
40981;SDS011;26708;50.304;19.028;2022-09-27T10:55:25;4.60;;;2.45;;
40981;SDS011;26708;50.304;19.028;2022-09-27T10:58:33;5.63;;;2.88;;
40981;SDS011;26708;50.304;19.028;2022-09-27T11:01:40;6.85;;;2.67;;
40981;SDS011;26708;50.304;19.028;2022-09-27T11:11:32;10.73;;;6.25;;
40981;SDS011;26708;50.304;19.028;2022-09-27T11:14:34;8.02;;;3.65;;
40981;SDS011;26708;50.304;19.028;2022-09-27T11:20:46;5.85;;;3.17;;
40981;SDS011;26708;50.304;19.028;2022-09-27T11:27:02;4.53;;;2.93;;
40981;SDS011;26708;50.304;19.028;2022-09-27T11:30:27;6.20;;;3.03;;
40981;SDS011;26708;50.304;19.028;2022-09-27T11:37:30;9.07;;;3.20;;
40981;SDS011;26708;50.304;19.028;2022-09-27T11:44:22;3.70;;;2.60;;
40981;SDS011;26708;50.304;19.028;2022-09-27T11:47:31;9.20;;;3.85;;
40981;SDS011;26708;50.304;19.028;2022-09-27T11:54:38;5.18;;;2.58;;
40981;SDS011;26708;50.304;19.028;2022-09-27T11:57:49;9.40;;;2.75;;
40981;SDS011;26708;50.304;19.028;2022-09-27T12:07:12;5.88;;;3.60;;
40981;SDS011;26708;50.304;19.028;2022-09-27T12:10:18;6.32;;;2.67;;
40981;SDS011;26708;50.304;19.028;2022-09-27T12:13:32;5.63;;;2.88;;
40981;SDS011;26708;50.304;19.028;2022-09-27T12:16:38;4.50;;;2.72;;
40981;SDS011;26708;50.304;19.028;2022-09-27T12:19:43;15.27;;;6.40;;
40981;SDS011;26708;50.304;19.028;2022-09-27T12:26:37;10.60;;;4.80;;
40981;SDS011;26708;50.304;19.028;2022-09-27T12:29:42;5.55;;;2.95;;
40981;SDS011;26708;50.304;19.028;2022-09-27T12:32:52;8.82;;;3.35;;
40981;SDS011;26708;50.304;19.028;2022-09-27T12:36:03;7.75;;;4.03;;
40981;SDS011;26708;50.304;19.028;2022-09-27T12:39:11;9.98;;;4.03;;
40981;SDS011;26708;50.304;19.028;2022-09-27T12:42:48;7.30;;;3.78;;
40981;SDS011;26708;50.304;19.028;2022-09-27T12:53:01;6.60;;;3.10;;
40981;SDS011;26708;50.304;19.028;2022-09-27T13:12:59;8.43;;;4.25;;
40981;SDS011;26708;50.304;19.028;2022-09-27T13:16:04;11.65;;;4.30;;
40981;SDS011;26708;50.304;19.028;2022-09-27T13:19:53;8.45;;;3.67;;
40981;SDS011;26708;50.304;19.028;2022-09-27T13:22:37;9.57;;;3.35;;
40981;SDS011;26708;50.304;19.028;2022-09-27T13:29:24;7.78;;;3.50;;
40981;SDS011;26708;50.304;19.028;2022-09-27T13:32:28;6.68;;;3.55;;
40981;SDS011;26708;50.304;19.028;2022-09-27T13:35:38;9.07;;;3.90;;
40981;SDS011;26708;50.304;19.028;2022-09-27T13:39:01;9.07;;;4.10;;
40981;SDS011;26708;50.304;19.028;2022-09-27T13:42:34;7.63;;;3.78;;
40981;SDS011;26708;50.304;19.028;2022-09-27T13:45:51;8.68;;;4.53;;
40981;SDS011;26708;50.304;19.028;2022-09-27T13:48:58;7.55;;;4.82;;
40981;SDS011;26708;50.304;19.028;2022-09-27T13:52:34;5.97;;;3.78;;
40981;SDS011;26708;50.304;19.028;2022-09-27T13:55:59;6.57;;;3.85;;
40981;SDS011;26708;50.304;19.028;2022-09-27T13:59:09;8.02;;;4.13;;
40981;SDS011;26708;50.304;19.028;2022-09-27T14:02:37;10.18;;;5.85;;
40981;SDS011;26708;50.304;19.028;2022-09-27T14:05:49;11.50;;;6.85;;
40981;SDS011;26708;50.304;19.028;2022-09-27T14:08:58;11.27;;;5.55;;
40981;SDS011;26708;50.304;19.028;2022-09-27T14:12:09;10.68;;;5.95;;
40981;SDS011;26708;50.304;19.028;2022-09-27T14:15:34;9.25;;;6.03;;
40981;SDS011;26708;50.304;19.028;2022-09-27T14:18:41;11.25;;;6.40;;
40981;SDS011;26708;50.304;19.028;2022-09-27T14:21:45;14.13;;;6.38;;
40981;SDS011;26708;50.304;19.028;2022-09-27T14:25:15;11.40;;;6.38;;
40981;SDS011;26708;50.304;19.028;2022-09-27T14:31:39;7.00;;;4.90;;
40981;SDS011;26708;50.304;19.028;2022-09-27T14:35:09;5.45;;;3.58;;
40981;SDS011;26708;50.304;19.028;2022-09-27T14:38:42;7.43;;;3.03;;
40981;SDS011;26708;50.304;19.028;2022-09-27T14:41:54;5.57;;;2.80;;
40981;SDS011;26708;50.304;19.028;2022-09-27T14:44:58;4.82;;;2.17;;
40981;SDS011;26708;50.304;19.028;2022-09-27T14:48:01;5.10;;;3.42;;
40981;SDS011;26708;50.304;19.028;2022-09-27T14:51:19;11.38;;;5.30;;
40981;SDS011;26708;50.304;19.028;2022-09-27T14:54:26;14.25;;;8.13;;
40981;SDS011;26708;50.304;19.028;2022-09-27T14:57:30;8.10;;;4.30;;
40981;SDS011;26708;50.304;19.028;2022-09-27T15:00:35;4.07;;;3.20;;
40981;SDS011;26708;50.304;19.028;2022-09-27T15:03:36;9.10;;;5.70;;
40981;SDS011;26708;50.304;19.028;2022-09-27T15:06:39;6.22;;;3.75;;
40981;SDS011;26708;50.304;19.028;2022-09-27T15:09:40;7.15;;;3.75;;
40981;SDS011;26708;50.304;19.028;2022-09-27T15:12:43;9.85;;;4.75;;
40981;SDS011;26708;50.304;19.028;2022-09-27T15:15:48;7.10;;;4.72;;
40981;SDS011;26708;50.304;19.028;2022-09-27T15:22:20;12.75;;;6.13;;
40981;SDS011;26708;50.304;19.028;2022-09-27T15:25:25;8.02;;;4.88;;
40981;SDS011;26708;50.304;19.028;2022-09-27T15:28:34;13.02;;;7.05;;
40981;SDS011;26708;50.304;19.028;2022-09-27T15:31:40;13.70;;;6.13;;
40981;SDS011;26708;50.304;19.028;2022-09-27T15:34:41;9.68;;;4.53;;
40981;SDS011;26708;50.304;19.028;2022-09-27T15:37:42;7.65;;;4.50;;
40981;SDS011;26708;50.304;19.028;2022-09-27T15:43:50;23.98;;;11.15;;
40981;SDS011;26708;50.304;19.028;2022-09-27T15:46:52;18.75;;;9.02;;
40981;SDS011;26708;50.304;19.028;2022-09-27T15:49:54;51.53;;;22.20;;
40981;SDS011;26708;50.304;19.028;2022-09-27T15:52:55;24.60;;;13.13;;
40981;SDS011;26708;50.304;19.028;2022-09-27T15:55:57;13.23;;;7.45;;
40981;SDS011;26708;50.304;19.028;2022-09-27T15:58:58;26.10;;;13.85;;
40981;SDS011;26708;50.304;19.028;2022-09-27T16:02:10;16.13;;;9.10;;
40981;SDS011;26708;50.304;19.028;2022-09-27T16:06:00;9.60;;;5.63;;
40981;SDS011;26708;50.304;19.028;2022-09-27T16:09:03;13.10;;;8.05;;
40981;SDS011;26708;50.304;19.028;2022-09-27T16:12:04;10.93;;;8.20;;
40981;SDS011;26708;50.304;19.028;2022-09-27T16:15:06;19.25;;;14.27;;
40981;SDS011;26708;50.304;19.028;2022-09-27T16:18:08;13.57;;;9.60;;
40981;SDS011;26708;50.304;19.028;2022-09-27T16:21:09;13.43;;;8.45;;
40981;SDS011;26708;50.304;19.028;2022-09-27T16:27:45;9.40;;;6.00;;
40981;SDS011;26708;50.304;19.028;2022-09-27T16:30:46;10.02;;;5.95;;
40981;SDS011;26708;50.304;19.028;2022-09-27T16:33:47;11.88;;;7.18;;
40981;SDS011;26708;50.304;19.028;2022-09-27T16:36:52;12.15;;;8.35;;
40981;SDS011;26708;50.304;19.028;2022-09-27T16:39:53;13.00;;;7.85;;
40981;SDS011;26708;50.304;19.028;2022-09-27T16:42:54;13.90;;;8.73;;
40981;SDS011;26708;50.304;19.028;2022-09-27T16:46:02;13.07;;;8.75;;
40981;SDS011;26708;50.304;19.028;2022-09-27T16:49:04;19.05;;;10.35;;
40981;SDS011;26708;50.304;19.028;2022-09-27T16:52:25;40.08;;;19.85;;
40981;SDS011;26708;50.304;19.028;2022-09-27T16:55:26;23.83;;;14.65;;
40981;SDS011;26708;50.304;19.028;2022-09-27T16:58:28;29.23;;;18.85;;
40981;SDS011;26708;50.304;19.028;2022-09-27T17:01:29;22.52;;;13.52;;
40981;SDS011;26708;50.304;19.028;2022-09-27T17:04:31;21.77;;;13.57;;
40981;SDS011;26708;50.304;19.028;2022-09-27T17:07:31;29.77;;;17.45;;
40981;SDS011;26708;50.304;19.028;2022-09-27T17:10:34;24.13;;;13.13;;
40981;SDS011;26708;50.304;19.028;2022-09-27T17:13:41;22.17;;;12.65;;
40981;SDS011;26708;50.304;19.028;2022-09-27T17:16:43;29.70;;;15.20;;
40981;SDS011;26708;50.304;19.028;2022-09-27T17:19:45;39.10;;;17.70;;
40981;SDS011;26708;50.304;19.028;2022-09-27T17:22:47;32.63;;;17.23;;
40981;SDS011;26708;50.304;19.028;2022-09-27T17:25:48;61.17;;;27.98;;
40981;SDS011;26708;50.304;19.028;2022-09-27T17:28:50;22.05;;;10.52;;
40981;SDS011;26708;50.304;19.028;2022-09-27T17:31:56;18.10;;;10.13;;
40981;SDS011;26708;50.304;19.028;2022-09-27T17:34:57;45.00;;;17.88;;
40981;SDS011;26708;50.304;19.028;2022-09-27T17:37:59;28.38;;;13.80;;
40981;SDS011;26708;50.304;19.028;2022-09-27T17:41:00;26.60;;;13.45;;
40981;SDS011;26708;50.304;19.028;2022-09-27T17:44:02;31.20;;;16.33;;
40981;SDS011;26708;50.304;19.028;2022-09-27T17:47:03;29.17;;;16.27;;
40981;SDS011;26708;50.304;19.028;2022-09-27T17:50:22;24.90;;;13.18;;
40981;SDS011;26708;50.304;19.028;2022-09-27T17:53:23;19.58;;;11.68;;
40981;SDS011;26708;50.304;19.028;2022-09-27T17:56:24;21.67;;;12.45;;
40981;SDS011;26708;50.304;19.028;2022-09-27T17:59:25;21.40;;;12.70;;
40981;SDS011;26708;50.304;19.028;2022-09-27T18:02:26;24.63;;;14.15;;
40981;SDS011;26708;50.304;19.028;2022-09-27T18:05:27;21.40;;;12.73;;
40981;SDS011;26708;50.304;19.028;2022-09-27T18:08:28;21.77;;;13.43;;
40981;SDS011;26708;50.304;19.028;2022-09-27T18:11:31;25.40;;;13.63;;
40981;SDS011;26708;50.304;19.028;2022-09-27T18:14:32;22.92;;;13.05;;
40981;SDS011;26708;50.304;19.028;2022-09-27T18:17:34;30.33;;;14.18;;
40981;SDS011;26708;50.304;19.028;2022-09-27T18:20:37;31.42;;;16.75;;
40981;SDS011;26708;50.304;19.028;2022-09-27T18:23:38;33.97;;;16.90;;
40981;SDS011;26708;50.304;19.028;2022-09-27T18:26:39;25.83;;;13.38;;
40981;SDS011;26708;50.304;19.028;2022-09-27T18:29:41;27.90;;;14.35;;
40981;SDS011;26708;50.304;19.028;2022-09-27T18:32:42;25.10;;;13.10;;
40981;SDS011;26708;50.304;19.028;2022-09-27T18:35:42;21.23;;;12.10;;
40981;SDS011;26708;50.304;19.028;2022-09-27T18:38:43;23.17;;;12.60;;
40981;SDS011;26708;50.304;19.028;2022-09-27T18:41:45;25.23;;;13.25;;
40981;SDS011;26708;50.304;19.028;2022-09-27T18:44:48;23.55;;;12.90;;
40981;SDS011;26708;50.304;19.028;2022-09-27T18:47:49;23.02;;;11.27;;
40981;SDS011;26708;50.304;19.028;2022-09-27T18:50:50;19.30;;;9.40;;
40981;SDS011;26708;50.304;19.028;2022-09-27T18:53:58;29.25;;;12.45;;
40981;SDS011;26708;50.304;19.028;2022-09-27T18:57:00;44.53;;;19.02;;
40981;SDS011;26708;50.304;19.028;2022-09-27T19:00:02;19.17;;;10.50;;
40981;SDS011;26708;50.304;19.028;2022-09-27T19:03:05;16.80;;;9.52;;
40981;SDS011;26708;50.304;19.028;2022-09-27T19:06:07;18.17;;;10.70;;
40981;SDS011;26708;50.304;19.028;2022-09-27T19:09:11;22.25;;;11.50;;
40981;SDS011;26708;50.304;19.028;2022-09-27T19:12:12;24.40;;;12.00;;
40981;SDS011;26708;50.304;19.028;2022-09-27T19:15:13;19.63;;;10.82;;
40981;SDS011;26708;50.304;19.028;2022-09-27T19:18:14;26.95;;;13.90;;
40981;SDS011;26708;50.304;19.028;2022-09-27T19:21:16;18.38;;;10.43;;
40981;SDS011;26708;50.304;19.028;2022-09-27T19:24:19;22.83;;;11.68;;
40981;SDS011;26708;50.304;19.028;2022-09-27T19:27:20;20.15;;;11.07;;
40981;SDS011;26708;50.304;19.028;2022-09-27T19:30:21;20.88;;;10.70;;
40981;SDS011;26708;50.304;19.028;2022-09-27T19:33:21;14.13;;;8.43;;
40981;SDS011;26708;50.304;19.028;2022-09-27T19:36:22;17.83;;;10.48;;
40981;SDS011;26708;50.304;19.028;2022-09-27T19:39:23;13.13;;;7.68;;
40981;SDS011;26708;50.304;19.028;2022-09-27T19:42:24;14.43;;;7.88;;
40981;SDS011;26708;50.304;19.028;2022-09-27T19:45:25;12.40;;;7.10;;
40981;SDS011;26708;50.304;19.028;2022-09-27T19:48:25;13.05;;;7.93;;
40981;SDS011;26708;50.304;19.028;2022-09-27T19:51:26;13.32;;;7.75;;
40981;SDS011;26708;50.304;19.028;2022-09-27T19:54:27;14.80;;;7.88;;
40981;SDS011;26708;50.304;19.028;2022-09-27T19:57:28;16.48;;;7.35;;
40981;SDS011;26708;50.304;19.028;2022-09-27T20:00:28;19.00;;;7.70;;
40981;SDS011;26708;50.304;19.028;2022-09-27T20:03:29;13.25;;;7.43;;
40981;SDS011;26708;50.304;19.028;2022-09-27T20:06:30;16.30;;;7.70;;
40981;SDS011;26708;50.304;19.028;2022-09-27T20:09:32;13.23;;;7.35;;
40981;SDS011;26708;50.304;19.028;2022-09-27T20:12:32;14.02;;;8.50;;
40981;SDS011;26708;50.304;19.028;2022-09-27T20:15:33;18.70;;;7.95;;
40981;SDS011;26708;50.304;19.028;2022-09-27T20:18:37;15.55;;;7.93;;
40981;SDS011;26708;50.304;19.028;2022-09-27T20:21:39;18.20;;;9.60;;
40981;SDS011;26708;50.304;19.028;2022-09-27T20:24:39;14.30;;;8.02;;
40981;SDS011;26708;50.304;19.028;2022-09-27T20:27:40;15.20;;;8.50;;
40981;SDS011;26708;50.304;19.028;2022-09-27T20:30:41;17.80;;;9.60;;
40981;SDS011;26708;50.304;19.028;2022-09-27T20:33:42;17.48;;;9.25;;
40981;SDS011;26708;50.304;19.028;2022-09-27T20:36:44;16.52;;;8.75;;
40981;SDS011;26708;50.304;19.028;2022-09-27T20:39:44;19.27;;;7.88;;
40981;SDS011;26708;50.304;19.028;2022-09-27T20:42:45;15.13;;;7.78;;